createdAt,value
2018-12-06T00:00:13.834Z,6.93
2018-12-06T00:01:13.515Z,6.96
2018-12-06T00:02:13.450Z,6.93
2018-12-06T00:03:13.471Z,6.93
2018-12-06T00:04:13.540Z,6.92
2018-12-06T00:05:13.432Z,6.95
2018-12-06T00:06:13.519Z,6.94
2018-12-06T00:07:13.416Z,6.95
2018-12-06T00:08:14.339Z,6.95
2018-12-06T00:09:13.567Z,6.93
2018-12-06T00:10:13.450Z,6.96
2018-12-06T00:11:13.456Z,6.96
2018-12-06T00:12:13.670Z,6.98
2018-12-06T00:13:13.492Z,6.98
2018-12-06T00:14:13.480Z,6.99
2018-12-06T00:15:13.412Z,6.95
2018-12-06T00:16:13.820Z,6.96
2018-12-06T00:17:13.525Z,6.98
2018-12-06T00:18:13.674Z,7.06
2018-12-06T00:19:13.542Z,7.02
2018-12-06T00:20:13.605Z,7.05
2018-12-06T00:21:13.660Z,7.03
2018-12-06T00:22:13.820Z,7.03
2018-12-06T00:23:13.505Z,7.04
2018-12-06T00:24:13.651Z,7.05
2018-12-06T00:25:13.452Z,7.07
2018-12-06T00:26:13.589Z,7.04
2018-12-06T00:27:13.605Z,7.05
2018-12-06T00:28:13.437Z,7.07
2018-12-06T00:29:13.551Z,7.06
2018-12-06T00:30:13.472Z,7.04
2018-12-06T00:31:13.561Z,7.05
2018-12-06T00:32:13.567Z,7.04
2018-12-06T00:33:13.511Z,7.06
2018-12-06T00:34:13.575Z,7.05
2018-12-06T00:35:13.398Z,7.05
2018-12-06T00:36:13.658Z,7.07
2018-12-06T00:37:13.678Z,7.05
2018-12-06T00:38:13.436Z,7.07
2018-12-06T00:39:13.426Z,7.09
2018-12-06T00:40:13.386Z,7.07
2018-12-06T00:41:13.397Z,7.07
2018-12-06T00:42:13.385Z,7.05
2018-12-06T00:43:13.402Z,7.04
2018-12-06T00:44:13.437Z,7.04
2018-12-06T00:45:13.460Z,7.04
2018-12-06T00:46:13.383Z,7.06
2018-12-06T00:47:13.390Z,7.05
2018-12-06T00:48:13.402Z,7.04
2018-12-06T00:49:13.697Z,7.05
2018-12-06T00:50:13.437Z,7.05
2018-12-06T00:51:13.428Z,7.05
2018-12-06T00:52:13.665Z,7.06
2018-12-06T00:53:13.409Z,7.07
2018-12-06T00:54:13.419Z,7.08
2018-12-06T00:55:13.543Z,7.07
2018-12-06T00:56:13.406Z,7.07
2018-12-06T00:57:13.896Z,7.07
2018-12-06T00:58:13.407Z,7.03
2018-12-06T00:59:13.392Z,7.03
2018-12-06T01:00:13.800Z,7.03
2018-12-06T01:01:14.012Z,7.01
2018-12-06T01:02:13.570Z,7
2018-12-06T01:03:14.192Z,7.01
2018-12-06T01:04:13.360Z,7.01
2018-12-06T01:05:13.657Z,7.02
2018-12-06T01:06:13.424Z,6.98
2018-12-06T01:07:13.467Z,6.98
2018-12-06T01:08:13.664Z,7
2018-12-06T01:09:13.409Z,7
2018-12-06T01:10:13.470Z,7
2018-12-06T01:11:13.564Z,7.04
2018-12-06T01:12:13.470Z,7.06
2018-12-06T01:13:13.540Z,7.03
2018-12-06T01:14:13.674Z,7.04
2018-12-06T01:15:13.760Z,7.02
2018-12-06T01:16:13.616Z,7.04
2018-12-06T01:17:13.386Z,7.02
2018-12-06T01:18:13.577Z,7.02
2018-12-06T01:19:13.405Z,7.03
2018-12-06T01:20:13.423Z,7.01
2018-12-06T01:21:13.934Z,7
2018-12-06T01:22:13.350Z,7.03
2018-12-06T01:23:13.508Z,7.01
2018-12-06T01:24:13.415Z,7
2018-12-06T01:25:13.455Z,7
2018-12-06T01:26:13.494Z,7.02
2018-12-06T01:27:13.504Z,7.02
2018-12-06T01:28:13.421Z,7.02
2018-12-06T01:29:13.440Z,7.04
2018-12-06T01:30:13.627Z,7.04
2018-12-06T01:31:13.723Z,7.04
2018-12-06T01:32:13.364Z,7.07
2018-12-06T01:33:13.361Z,7.07
2018-12-06T01:34:13.308Z,7.05
2018-12-06T01:35:13.353Z,7.05
2018-12-06T01:36:13.490Z,7.05
2018-12-06T01:37:13.380Z,7.03
2018-12-06T01:38:13.353Z,7.01
2018-12-06T01:39:13.579Z,7.05
2018-12-06T01:40:13.334Z,7.04
2018-12-06T01:41:13.615Z,7.05
2018-12-06T01:42:13.443Z,7.05
2018-12-06T01:43:13.370Z,7.05
2018-12-06T01:44:13.464Z,7.05
2018-12-06T01:45:13.626Z,7.07
2018-12-06T01:46:13.358Z,7.05
2018-12-06T01:47:13.375Z,7.06
2018-12-06T01:48:13.334Z,7.06
2018-12-06T01:49:13.513Z,7.05
2018-12-06T01:50:13.296Z,7.05
2018-12-06T01:51:13.359Z,7.03
2018-12-06T01:52:13.466Z,7.03
2018-12-06T01:53:13.353Z,7.03
2018-12-06T01:54:13.425Z,7.04
2018-12-06T01:55:13.418Z,7.04
2018-12-06T01:56:13.374Z,7.04
2018-12-06T01:57:13.315Z,7.05
2018-12-06T01:58:13.339Z,7.06
2018-12-06T01:59:13.309Z,7.07
2018-12-06T02:00:13.590Z,7.07
2018-12-06T02:01:13.327Z,7.06
2018-12-06T02:02:13.368Z,7.05
2018-12-06T02:03:13.509Z,7.07
2018-12-06T02:04:13.413Z,7.08
2018-12-06T02:05:13.324Z,7.08
2018-12-06T02:06:13.363Z,7.07
2018-12-06T02:07:13.452Z,7.08
2018-12-06T02:08:13.252Z,7.1
2018-12-06T02:09:13.400Z,7.1
2018-12-06T02:10:13.373Z,7.09
2018-12-06T02:11:13.313Z,7.08
2018-12-06T02:12:13.281Z,7.09
2018-12-06T02:13:13.290Z,7.08
2018-12-06T02:14:13.263Z,7.1
2018-12-06T02:15:13.269Z,7.07
2018-12-06T02:16:13.275Z,7.09
2018-12-06T02:17:13.320Z,7.07
2018-12-06T02:18:13.273Z,7.06
2018-12-06T02:19:13.330Z,7.07
2018-12-06T02:20:13.257Z,7.08
2018-12-06T02:21:13.334Z,7.07
2018-12-06T02:22:13.272Z,7.08
2018-12-06T02:23:13.259Z,7.11
2018-12-06T02:24:13.313Z,7.08
2018-12-06T02:25:13.271Z,7.08
2018-12-06T02:26:13.310Z,7.07
2018-12-06T02:27:13.231Z,7.07
2018-12-06T02:28:13.411Z,7.05
2018-12-06T02:29:13.250Z,7.06
2018-12-06T02:30:13.258Z,7.06
2018-12-06T02:31:13.314Z,7.07
2018-12-06T02:32:13.366Z,7.09
2018-12-06T02:33:13.293Z,7.11
2018-12-06T02:34:13.711Z,7.1
2018-12-06T02:35:13.618Z,7.1
2018-12-06T02:36:13.443Z,7.1
2018-12-06T02:37:13.352Z,7.13
2018-12-06T02:38:13.775Z,7.11
2018-12-06T02:39:13.421Z,7.09
2018-12-06T02:40:13.269Z,7.09
2018-12-06T02:41:13.498Z,7.1
2018-12-06T02:42:13.318Z,7.11
2018-12-06T02:43:13.275Z,7.11
2018-12-06T02:44:13.325Z,7.12
2018-12-06T02:45:13.462Z,7.12
2018-12-06T02:46:13.412Z,7.14
2018-12-06T02:47:13.215Z,7.13
2018-12-06T02:48:13.323Z,7.11
2018-12-06T02:49:13.346Z,7.12
2018-12-06T02:50:13.250Z,7.11
2018-12-06T02:51:13.298Z,7.1
2018-12-06T02:52:13.308Z,7.08
2018-12-06T02:53:13.363Z,7.09
2018-12-06T02:54:13.336Z,7.09
2018-12-06T02:55:13.377Z,7.09
2018-12-06T02:56:13.308Z,7.12
2018-12-06T02:57:13.232Z,7.08
2018-12-06T02:58:13.214Z,7.09
2018-12-06T02:59:13.314Z,7.09
2018-12-06T03:00:13.390Z,7.09
2018-12-06T03:01:13.395Z,7.09
2018-12-06T03:02:13.382Z,7.1
2018-12-06T03:03:13.563Z,7.07
2018-12-06T03:04:13.355Z,7.08
2018-12-06T03:05:13.200Z,7.11
2018-12-06T03:06:13.224Z,7.11
2018-12-06T03:07:13.371Z,7.11
2018-12-06T03:08:13.342Z,7.11
2018-12-06T03:09:13.434Z,7.12
2018-12-06T03:10:13.273Z,7.14
2018-12-06T03:11:13.469Z,7.13
2018-12-06T03:12:13.209Z,7.13
2018-12-06T03:13:13.291Z,7.13
2018-12-06T03:14:13.362Z,7.14
2018-12-06T03:15:13.359Z,7.16
2018-12-06T03:16:13.420Z,7.15
2018-12-06T03:17:13.274Z,7.13
2018-12-06T03:18:13.269Z,7.14
2018-12-06T03:19:13.219Z,7.14
2018-12-06T03:20:13.378Z,7.14
2018-12-06T03:21:13.266Z,7.15
2018-12-06T03:22:13.342Z,7.14
2018-12-06T03:23:13.324Z,7.13
2018-12-06T03:24:13.219Z,7.13
2018-12-06T03:25:13.253Z,7.13
2018-12-06T03:26:13.741Z,7.13
2018-12-06T03:27:13.511Z,7.14
2018-12-06T03:28:13.373Z,7.13
2018-12-06T03:29:13.204Z,7.12
2018-12-06T03:30:13.270Z,7.12
2018-12-06T03:31:13.459Z,7.12
2018-12-06T03:32:13.342Z,7.12
2018-12-06T03:33:13.289Z,7.13
2018-12-06T03:34:13.478Z,7.13
2018-12-06T03:35:13.525Z,7.13
2018-12-06T03:36:13.302Z,7.11
2018-12-06T03:37:13.230Z,7.12
2018-12-06T03:38:13.209Z,7.11
2018-12-06T03:39:13.363Z,7.13
2018-12-06T03:40:13.169Z,7.13
2018-12-06T03:41:13.305Z,7.16
2018-12-06T03:42:13.235Z,7.16
2018-12-06T03:43:13.520Z,7.16
2018-12-06T03:44:13.283Z,7.15
2018-12-06T03:45:13.228Z,7.14
2018-12-06T03:46:13.205Z,7.14
2018-12-06T03:47:13.516Z,7.12
2018-12-06T03:48:14.003Z,7.13
2018-12-06T03:49:13.157Z,7.1
2018-12-06T03:50:13.320Z,7.13
2018-12-06T03:51:13.305Z,7.14
2018-12-06T03:52:13.275Z,7.15
2018-12-06T03:53:13.213Z,7.17
2018-12-06T03:54:13.230Z,7.18
2018-12-06T03:55:13.161Z,7.17
2018-12-06T03:56:13.201Z,7.17
2018-12-06T03:57:13.202Z,7.17
2018-12-06T03:58:13.240Z,7.15
2018-12-06T03:59:13.187Z,7.15
2018-12-06T04:00:13.230Z,7.17
2018-12-06T04:01:13.204Z,7.18
2018-12-06T04:02:13.175Z,7.17
2018-12-06T04:03:13.147Z,7.17
2018-12-06T04:04:13.190Z,7.18
2018-12-06T04:05:13.326Z,7.18
2018-12-06T04:06:13.113Z,7.18
2018-12-06T04:07:13.132Z,7.18
2018-12-06T04:08:13.151Z,7.18
2018-12-06T04:09:13.499Z,7.21
2018-12-06T04:10:13.184Z,7.2
2018-12-06T04:11:13.204Z,7.17
2018-12-06T04:12:13.150Z,7.19
2018-12-06T04:13:13.685Z,7.21
2018-12-06T04:14:13.332Z,7.2
2018-12-06T04:15:13.236Z,7.19
2018-12-06T04:16:13.515Z,7.19
2018-12-06T04:17:13.179Z,7.19
2018-12-06T04:18:13.283Z,7.19
2018-12-06T04:19:13.496Z,7.19
2018-12-06T04:20:13.420Z,7.19
2018-12-06T04:21:13.319Z,7.2
2018-12-06T04:22:13.211Z,7.2
2018-12-06T04:23:13.352Z,7.21
2018-12-06T04:24:13.956Z,7.21
2018-12-06T04:25:13.198Z,7.21
2018-12-06T04:26:13.516Z,7.2
2018-12-06T04:27:13.214Z,7.2
2018-12-06T04:28:13.225Z,7.22
2018-12-06T04:29:13.289Z,7.23
2018-12-06T04:30:13.354Z,7.23
2018-12-06T04:31:13.089Z,7.21
2018-12-06T04:32:13.185Z,7.21
2018-12-06T04:33:13.713Z,7.22
2018-12-06T04:34:13.401Z,7.21
2018-12-06T04:35:13.266Z,7.21
2018-12-06T04:36:13.238Z,7.24
2018-12-06T04:37:13.255Z,7.24
2018-12-06T04:38:13.666Z,7.24
2018-12-06T04:39:13.392Z,7.22
2018-12-06T04:40:13.815Z,7.24
2018-12-06T04:41:13.462Z,7.26
2018-12-06T04:42:13.304Z,7.25
2018-12-06T04:43:13.436Z,7.25
2018-12-06T04:44:13.060Z,7.25
2018-12-06T04:45:13.087Z,7.23
2018-12-06T04:46:13.160Z,7.24
2018-12-06T04:47:14.540Z,7.24
2018-12-06T04:48:22.576Z,7.24
2018-12-06T04:49:13.101Z,7.26
2018-12-06T04:50:13.209Z,7.24
2018-12-06T04:51:13.318Z,7.23
2018-12-06T04:52:13.317Z,7.25
2018-12-06T04:53:13.158Z,7.25
2018-12-06T04:54:13.215Z,7.28
2018-12-06T04:55:13.107Z,7.25
2018-12-06T04:56:13.100Z,7.27
2018-12-06T04:57:13.231Z,7.28
2018-12-06T04:58:13.300Z,7.32
2018-12-06T04:59:13.174Z,7.32
2018-12-06T05:00:13.366Z,7.29
2018-12-06T05:01:13.129Z,7.33
2018-12-06T05:02:13.145Z,7.31
2018-12-06T05:03:13.165Z,7.32
2018-12-06T05:04:13.211Z,7.32
2018-12-06T05:05:13.282Z,7.3
2018-12-06T05:06:13.086Z,7.31
2018-12-06T05:07:13.056Z,7.33
2018-12-06T05:08:13.103Z,7.35
2018-12-06T05:09:13.187Z,7.33
2018-12-06T05:10:13.053Z,7.32
2018-12-06T05:11:13.186Z,7.32
2018-12-06T05:12:13.863Z,7.33
2018-12-06T05:13:14.155Z,7.32
2018-12-06T05:14:13.126Z,7.31
2018-12-06T05:15:13.106Z,7.31
2018-12-06T05:16:13.265Z,7.35
2018-12-06T05:17:13.133Z,7.39
2018-12-06T05:18:13.049Z,7.37
2018-12-06T05:19:13.129Z,7.34
2018-12-06T05:20:13.419Z,7.34
2018-12-06T05:21:13.148Z,7.33
2018-12-06T05:22:13.094Z,7.36
2018-12-06T05:23:14.328Z,7.37
2018-12-06T05:24:13.211Z,7.37
2018-12-06T05:25:13.144Z,7.38
2018-12-06T05:26:13.053Z,7.43
2018-12-06T05:27:13.150Z,7.4
2018-12-06T05:28:13.223Z,7.39
2018-12-06T05:29:13.125Z,7.38
2018-12-06T05:30:13.103Z,7.43
2018-12-06T05:31:13.350Z,7.4
2018-12-06T05:32:13.174Z,7.4
2018-12-06T05:33:13.125Z,7.4
2018-12-06T05:34:13.166Z,7.4
2018-12-06T05:35:13.023Z,7.42
2018-12-06T05:36:13.058Z,7.43
2018-12-06T05:37:13.018Z,7.43
2018-12-06T05:38:13.059Z,7.42
2018-12-06T05:39:13.111Z,7.41
2018-12-06T05:40:13.136Z,7.41
2018-12-06T05:41:13.421Z,7.42
2018-12-06T05:42:13.098Z,7.43
2018-12-06T05:43:13.146Z,7.44
2018-12-06T05:44:13.035Z,7.42
2018-12-06T05:45:13.259Z,7.43
2018-12-06T05:46:13.132Z,7.43
2018-12-06T05:47:13.034Z,7.46
2018-12-06T05:48:13.130Z,7.47
2018-12-06T05:49:13.133Z,7.46
2018-12-06T05:50:13.108Z,7.46
2018-12-06T05:51:14.609Z,7.46
2018-12-06T05:52:13.023Z,7.46
2018-12-06T05:53:13.133Z,7.46
2018-12-06T05:54:13.086Z,7.45
2018-12-06T05:55:13.809Z,7.46
2018-12-06T05:56:13.068Z,7.47
2018-12-06T05:57:13.056Z,7.46
2018-12-06T05:58:13.106Z,7.45
2018-12-06T05:59:13.022Z,7.48
2018-12-06T06:00:13.096Z,7.49
2018-12-06T06:01:13.030Z,7.52
2018-12-06T06:02:13.213Z,7.49
2018-12-06T06:03:13.250Z,7.48
2018-12-06T06:04:13.058Z,7.47
2018-12-06T06:05:13.134Z,7.49
2018-12-06T06:06:13.395Z,7.48
2018-12-06T06:07:13.830Z,7.48
2018-12-06T06:08:12.975Z,7.5
2018-12-06T06:09:13.622Z,7.51
2018-12-06T06:10:13.211Z,7.51
2018-12-06T06:11:13.156Z,7.51
2018-12-06T06:12:13.361Z,7.5
2018-12-06T06:13:13.012Z,7.49
2018-12-06T06:14:13.126Z,7.49
2018-12-06T06:15:13.081Z,7.55
2018-12-06T06:16:13.168Z,7.54
2018-12-06T06:17:13.146Z,7.53
2018-12-06T06:18:13.079Z,7.53
2018-12-06T06:19:12.950Z,7.53
2018-12-06T06:20:13.093Z,7.54
2018-12-06T06:21:13.268Z,7.54
2018-12-06T06:22:13.106Z,7.52
2018-12-06T06:23:13.234Z,7.52
2018-12-06T06:24:12.983Z,7.51
2018-12-06T06:25:13.128Z,7.51
2018-12-06T06:26:13.170Z,7.5
2018-12-06T06:27:13.094Z,7.51
2018-12-06T06:28:13.217Z,7.52
2018-12-06T06:29:13.327Z,7.52
2018-12-06T06:30:13.172Z,7.53
2018-12-06T06:31:13.099Z,7.52
2018-12-06T06:32:12.938Z,7.53
2018-12-06T06:33:13.083Z,7.5
2018-12-06T06:34:13.110Z,7.52
2018-12-06T06:35:13.180Z,7.55
2018-12-06T06:36:13.397Z,7.54
2018-12-06T06:37:13.226Z,7.54
2018-12-06T06:38:13.203Z,7.54
2018-12-06T06:39:13.139Z,7.54
2018-12-06T06:40:13.195Z,7.54
2018-12-06T06:41:13.036Z,7.54
2018-12-06T06:42:13.142Z,7.56
2018-12-06T06:43:13.152Z,7.56
2018-12-06T06:44:13.135Z,7.56
2018-12-06T06:45:12.959Z,7.56
2018-12-06T06:46:13.170Z,7.56
2018-12-06T06:47:13.518Z,7.55
2018-12-06T06:48:13.155Z,7.57
2018-12-06T06:49:14.453Z,7.57
2018-12-06T06:50:13.134Z,7.59
2018-12-06T06:51:13.160Z,7.59
2018-12-06T06:52:13.154Z,7.58
2018-12-06T06:53:12.957Z,7.56
2018-12-06T06:54:13.242Z,7.59
2018-12-06T06:55:12.992Z,7.6
2018-12-06T06:56:13.102Z,7.58
2018-12-06T06:57:13.280Z,7.59
2018-12-06T06:58:13.176Z,7.59
2018-12-06T06:59:12.924Z,7.64
2018-12-06T07:00:12.929Z,7.63
2018-12-06T07:01:13.600Z,7.63
2018-12-06T07:02:12.910Z,7.64
2018-12-06T07:03:13.174Z,7.65
2018-12-06T07:04:13.016Z,7.66
2018-12-06T07:05:13.115Z,7.69
2018-12-06T07:06:13.427Z,7.69
2018-12-06T07:07:13.065Z,7.71
2018-12-06T07:08:12.930Z,7.72
2018-12-06T07:09:13.278Z,7.74
2018-12-06T07:10:13.213Z,7.74
2018-12-06T07:11:13.182Z,7.75
2018-12-06T07:12:13.055Z,7.74
2018-12-06T07:13:13.160Z,7.76
2018-12-06T07:14:12.892Z,7.75
2018-12-06T07:15:12.917Z,7.76
2018-12-06T07:16:13.081Z,7.75
2018-12-06T07:17:13.003Z,7.75
2018-12-06T07:18:12.940Z,7.75
2018-12-06T07:19:12.931Z,7.75
2018-12-06T07:20:12.940Z,7.74
2018-12-06T07:21:12.961Z,7.73
2018-12-06T07:22:12.903Z,7.71
2018-12-06T07:23:13.136Z,7.69
2018-12-06T07:24:13.327Z,7.7
2018-12-06T07:25:13.093Z,7.7
2018-12-06T07:26:12.954Z,7.69
2018-12-06T07:27:12.873Z,7.69
2018-12-06T07:28:13.080Z,7.71
2018-12-06T07:29:12.872Z,7.71
2018-12-06T07:30:13.042Z,7.71
2018-12-06T07:31:12.968Z,7.7
2018-12-06T07:32:12.874Z,7.71
2018-12-06T07:33:13.297Z,7.71
2018-12-06T07:34:13.267Z,7.73
2018-12-06T07:35:12.879Z,7.72
2018-12-06T07:36:12.869Z,7.72
2018-12-06T07:37:12.944Z,7.74
2018-12-06T07:38:13.154Z,7.75
2018-12-06T07:39:12.949Z,7.75
2018-12-06T07:40:12.930Z,7.73
2018-12-06T07:41:14.841Z,7.72
2018-12-06T07:42:13.046Z,7.73
2018-12-06T07:43:13.192Z,7.73
2018-12-06T07:44:12.849Z,7.75
2018-12-06T07:45:13.184Z,7.73
2018-12-06T07:46:13.084Z,7.74
2018-12-06T07:47:12.882Z,7.76
2018-12-06T07:48:13.720Z,7.77
2018-12-06T07:49:13.128Z,7.76
2018-12-06T07:50:13.098Z,7.81
2018-12-06T07:51:12.907Z,7.83
2018-12-06T07:52:13.098Z,7.83
2018-12-06T07:53:12.937Z,7.86
2018-12-06T07:54:14.290Z,7.84
2018-12-06T07:55:13.142Z,7.85
2018-12-06T07:56:13.079Z,7.83
2018-12-06T07:57:13.059Z,7.83
2018-12-06T07:58:13.022Z,7.83
2018-12-06T07:59:13.058Z,7.83
2018-12-06T08:00:13.336Z,7.82
2018-12-06T08:01:13.134Z,7.84
2018-12-06T08:02:13.080Z,7.84
2018-12-06T08:03:13.050Z,7.83
2018-12-06T08:04:12.945Z,7.81
2018-12-06T08:05:12.856Z,7.84
2018-12-06T08:06:13.043Z,7.83
2018-12-06T08:07:13.088Z,7.83
2018-12-06T08:08:13.675Z,7.83
2018-12-06T08:09:13.465Z,7.83
2018-12-06T08:10:16.105Z,7.83
2018-12-06T08:11:12.850Z,7.82
2018-12-06T08:12:13.093Z,7.82
2018-12-06T08:13:13.144Z,7.83
2018-12-06T08:14:12.999Z,7.86
2018-12-06T08:15:12.854Z,7.84
2018-12-06T08:16:13.039Z,7.85
2018-12-06T08:17:13.203Z,7.86
2018-12-06T08:18:13.274Z,7.83
2018-12-06T08:19:14.311Z,7.83
2018-12-06T08:20:12.826Z,7.85
2018-12-06T08:21:12.935Z,7.85
2018-12-06T08:22:12.866Z,7.85
2018-12-06T08:23:12.939Z,7.85
2018-12-06T08:24:13.058Z,7.87
2018-12-06T08:25:13.051Z,7.85
2018-12-06T08:26:12.901Z,7.87
2018-12-06T08:27:12.857Z,7.86
2018-12-06T08:28:13.027Z,7.9
2018-12-06T08:29:13.047Z,7.88
2018-12-06T08:30:12.998Z,7.89
2018-12-06T08:31:12.825Z,7.91
2018-12-06T08:32:12.867Z,7.92
2018-12-06T08:33:13.190Z,7.91
2018-12-06T08:34:12.948Z,7.91
2018-12-06T08:35:13.107Z,7.9
2018-12-06T08:36:12.865Z,7.89
2018-12-06T08:37:12.867Z,7.91
2018-12-06T08:38:12.931Z,7.92
2018-12-06T08:39:13.232Z,7.92
2018-12-06T08:40:12.891Z,7.92
2018-12-06T08:41:12.897Z,7.91
2018-12-06T08:42:12.991Z,7.92
2018-12-06T08:43:12.913Z,7.93
2018-12-06T08:44:13.334Z,7.92
2018-12-06T08:45:12.882Z,7.93
2018-12-06T08:46:13.071Z,7.93
2018-12-06T08:47:13.079Z,7.93
2018-12-06T08:48:12.945Z,7.95
2018-12-06T08:49:12.802Z,7.95
2018-12-06T08:50:12.812Z,7.97
2018-12-06T08:51:12.815Z,7.99
2018-12-06T08:52:12.933Z,8.01
2018-12-06T08:53:12.776Z,8.05
2018-12-06T08:54:12.920Z,8.07
2018-12-06T08:55:12.795Z,8.07
2018-12-06T08:56:12.784Z,8.08
2018-12-06T08:57:12.805Z,8.08
2018-12-06T08:58:12.817Z,8.1
2018-12-06T08:59:16.014Z,8.09
2018-12-06T09:00:12.864Z,8.09
2018-12-06T09:01:12.767Z,8.1
2018-12-06T09:02:13.015Z,8.13
2018-12-06T09:03:12.748Z,8.11
2018-12-06T09:04:12.757Z,8.13
2018-12-06T09:05:12.760Z,8.1
2018-12-06T09:06:12.852Z,8.1
2018-12-06T09:07:12.746Z,8.1
2018-12-06T09:08:12.765Z,8.12
2018-12-06T09:09:12.822Z,8.12
2018-12-06T09:10:12.831Z,8.12
2018-12-06T09:11:13.031Z,8.15
2018-12-06T09:12:12.783Z,8.12
2018-12-06T09:13:12.767Z,8.13
2018-12-06T09:14:12.744Z,8.13
2018-12-06T09:15:12.801Z,8.13
2018-12-06T09:16:12.880Z,8.15
2018-12-06T09:17:12.776Z,8.15
2018-12-06T09:18:13.262Z,8.16
2018-12-06T09:19:14.951Z,8.18
2018-12-06T09:20:12.944Z,8.16
2018-12-06T09:21:13.100Z,8.18
2018-12-06T09:22:12.849Z,8.2
2018-12-06T09:23:12.775Z,8.22
2018-12-06T09:24:13.071Z,8.22
2018-12-06T09:25:12.838Z,8.23
2018-12-06T09:26:12.983Z,8.24
2018-12-06T09:27:12.800Z,8.25
2018-12-06T09:28:12.938Z,8.25
2018-12-06T09:29:13.105Z,8.25
2018-12-06T09:30:12.879Z,8.27
2018-12-06T09:31:12.844Z,8.3
2018-12-06T09:32:12.726Z,8.32
2018-12-06T09:33:12.814Z,8.36
2018-12-06T09:34:12.736Z,8.35
2018-12-06T09:35:12.826Z,8.34
2018-12-06T09:36:12.803Z,8.34
2018-12-06T09:37:12.997Z,8.38
2018-12-06T09:38:12.743Z,8.39
2018-12-06T09:39:12.744Z,8.39
2018-12-06T09:40:12.931Z,8.44
2018-12-06T09:41:12.759Z,8.44
2018-12-06T09:42:12.944Z,8.45
2018-12-06T09:43:13.020Z,8.48
2018-12-06T09:44:12.770Z,8.45
2018-12-06T09:45:13.202Z,8.45
2018-12-06T09:46:12.852Z,8.47
2018-12-06T09:47:12.763Z,8.48
2018-12-06T09:48:12.831Z,8.48
2018-12-06T09:49:13.418Z,8.52
2018-12-06T09:50:12.866Z,8.52
2018-12-06T09:51:13.093Z,8.54
2018-12-06T09:52:13.204Z,8.55
2018-12-06T09:53:12.835Z,8.6
2018-12-06T09:54:12.926Z,8.58
2018-12-06T09:55:12.713Z,8.59
2018-12-06T09:56:12.822Z,8.63
2018-12-06T09:57:12.778Z,8.65
2018-12-06T09:58:12.800Z,8.62
2018-12-06T09:59:12.889Z,8.65
2018-12-06T10:00:13.039Z,8.68
2018-12-06T10:01:13.154Z,8.68
2018-12-06T10:02:12.744Z,8.64
2018-12-06T10:03:12.752Z,8.67
2018-12-06T10:04:13.236Z,8.67
2018-12-06T10:05:12.791Z,8.72
2018-12-06T10:06:13.117Z,8.73
2018-12-06T10:07:13.093Z,8.72
2018-12-06T10:08:13.149Z,8.79
2018-12-06T10:09:12.879Z,8.76
2018-12-06T10:10:13.851Z,8.76
2018-12-06T10:11:13.220Z,8.76
2018-12-06T10:12:12.853Z,8.78
2018-12-06T10:13:12.725Z,8.82
2018-12-06T10:14:12.835Z,8.85
2018-12-06T10:15:12.747Z,8.84
2018-12-06T10:16:12.784Z,8.86
2018-12-06T10:17:12.802Z,8.88
2018-12-06T10:18:13.558Z,8.89
2018-12-06T10:19:13.503Z,8.92
2018-12-06T10:20:12.773Z,8.89
2018-12-06T10:21:12.879Z,8.89
2018-12-06T10:22:12.866Z,8.88
2018-12-06T10:23:12.626Z,8.87
2018-12-06T10:24:12.677Z,8.87
2018-12-06T10:25:12.814Z,8.9
2018-12-06T10:26:12.810Z,8.87
2018-12-06T10:27:12.865Z,8.86
2018-12-06T10:28:12.806Z,8.88
2018-12-06T10:29:12.687Z,8.89
2018-12-06T10:30:12.724Z,8.88
2018-12-06T10:31:12.760Z,8.9
2018-12-06T10:32:12.699Z,8.91
2018-12-06T10:33:12.719Z,8.87
2018-12-06T10:34:12.845Z,8.87
2018-12-06T10:35:12.716Z,8.9
2018-12-06T10:36:12.654Z,8.92
2018-12-06T10:37:12.677Z,8.91
2018-12-06T10:38:12.701Z,8.9
2018-12-06T10:39:12.671Z,8.92
2018-12-06T10:40:13.053Z,8.96
2018-12-06T10:41:12.701Z,8.97
2018-12-06T10:42:12.692Z,8.99
2018-12-06T10:43:12.663Z,8.98
2018-12-06T10:44:12.715Z,9
2018-12-06T10:45:12.678Z,9
2018-12-06T10:46:12.705Z,9
2018-12-06T10:47:12.660Z,9.01
2018-12-06T10:48:12.771Z,9.07
2018-12-06T10:49:12.669Z,9.05
2018-12-06T10:50:12.669Z,9.04
2018-12-06T10:51:12.671Z,9.06
2018-12-06T10:52:12.750Z,9.06
2018-12-06T10:53:13.069Z,9.07
2018-12-06T10:54:12.675Z,9.04
2018-12-06T10:55:12.916Z,9.06
2018-12-06T10:56:12.732Z,9.07
2018-12-06T10:57:12.728Z,9.08
2018-12-06T10:58:12.691Z,9.08
2018-12-06T10:59:12.661Z,9.06
2018-12-06T11:00:12.787Z,9.07
2018-12-06T11:01:12.683Z,9.04
2018-12-06T11:02:12.766Z,9.06
2018-12-06T11:03:12.869Z,9.07
2018-12-06T11:04:12.905Z,9.07
2018-12-06T11:05:12.764Z,9.07
2018-12-06T11:06:12.648Z,9.07
2018-12-06T11:07:12.757Z,9.07
2018-12-06T11:08:12.632Z,9.08
2018-12-06T11:09:12.996Z,9.08
2018-12-06T11:10:12.812Z,9.07
2018-12-06T11:11:12.742Z,9.09
2018-12-06T11:12:12.657Z,9.08
2018-12-06T11:13:12.565Z,9.1
2018-12-06T11:14:13.147Z,9.11
2018-12-06T11:15:12.818Z,9.12
2018-12-06T11:16:12.709Z,9.11
2018-12-06T11:17:13.020Z,9.12
2018-12-06T11:18:12.688Z,9.12
2018-12-06T11:19:13.073Z,9.15
2018-12-06T11:20:12.920Z,9.18
2018-12-06T11:21:12.890Z,9.18
2018-12-06T11:22:12.870Z,9.17
2018-12-06T11:23:12.723Z,9.2
2018-12-06T11:24:12.647Z,9.19
2018-12-06T11:25:13.129Z,9.22
2018-12-06T11:26:12.723Z,9.19
2018-12-06T11:27:13.088Z,9.26
2018-12-06T11:28:12.772Z,9.22
2018-12-06T11:29:12.762Z,9.19
2018-12-06T11:30:12.767Z,9.18
2018-12-06T11:31:12.619Z,9.18
2018-12-06T11:32:12.873Z,9.19
2018-12-06T11:33:12.636Z,9.21
2018-12-06T11:34:13.008Z,9.24
2018-12-06T11:35:12.619Z,9.22
2018-12-06T11:36:12.781Z,9.23
2018-12-06T11:37:12.867Z,9.25
2018-12-06T11:38:12.761Z,9.24
2018-12-06T11:39:12.660Z,9.24
2018-12-06T11:40:12.584Z,9.22
2018-12-06T11:41:12.762Z,9.22
2018-12-06T11:42:12.820Z,9.23
2018-12-06T11:43:12.602Z,9.27
2018-12-06T11:44:12.851Z,9.27
2018-12-06T11:45:12.608Z,9.26
2018-12-06T11:46:12.623Z,9.3
2018-12-06T11:47:13.219Z,9.28
2018-12-06T11:48:12.742Z,9.29
2018-12-06T11:49:12.748Z,9.31
2018-12-06T11:50:12.630Z,9.29
2018-12-06T11:51:12.628Z,9.29
2018-12-06T11:52:12.906Z,9.29
2018-12-06T11:53:12.574Z,9.27
2018-12-06T11:54:12.608Z,9.25
2018-12-06T11:55:13.222Z,9.27
2018-12-06T11:56:12.655Z,9.26
2018-12-06T11:57:12.779Z,9.26
2018-12-06T11:58:12.713Z,9.27
2018-12-06T11:59:12.687Z,9.3
2018-12-06T12:00:12.705Z,9.34
2018-12-06T12:01:13.597Z,9.35
2018-12-06T12:02:12.626Z,9.35
2018-12-06T12:03:12.709Z,9.4
2018-12-06T12:04:12.890Z,9.41
2018-12-06T12:05:12.878Z,9.4
2018-12-06T12:06:13.533Z,9.39
2018-12-06T12:07:12.599Z,9.43
2018-12-06T12:08:12.809Z,9.46
2018-12-06T12:09:12.661Z,9.47
2018-12-06T12:10:12.753Z,9.46
2018-12-06T12:11:12.607Z,9.41
2018-12-06T12:12:13.029Z,9.42
2018-12-06T12:13:12.799Z,9.41
2018-12-06T12:14:12.579Z,9.38
2018-12-06T12:15:12.572Z,9.34
2018-12-06T12:16:12.561Z,9.39
2018-12-06T12:17:12.592Z,9.37
2018-12-06T12:18:12.594Z,9.39
2018-12-06T12:19:12.635Z,9.43
2018-12-06T12:20:12.520Z,9.44
2018-12-06T12:21:12.562Z,9.42
2018-12-06T12:22:12.580Z,9.41
2018-12-06T12:23:12.710Z,9.38
2018-12-06T12:24:12.531Z,9.4
2018-12-06T12:25:12.595Z,9.43
2018-12-06T12:26:12.727Z,9.44
2018-12-06T12:27:12.584Z,9.42
2018-12-06T12:28:12.550Z,9.42
2018-12-06T12:29:12.583Z,9.43
2018-12-06T12:30:12.527Z,9.4
2018-12-06T12:31:12.550Z,9.43
2018-12-06T12:32:12.592Z,9.45
2018-12-06T12:33:12.578Z,9.45
2018-12-06T12:34:12.576Z,9.47
2018-12-06T12:35:12.529Z,9.51
2018-12-06T12:36:12.656Z,9.47
2018-12-06T12:37:12.577Z,9.47
2018-12-06T12:38:12.535Z,9.45
2018-12-06T12:39:12.557Z,9.5
2018-12-06T12:40:12.575Z,9.49
2018-12-06T12:41:13.059Z,9.51
2018-12-06T12:42:12.838Z,9.52
2018-12-06T12:43:12.892Z,9.57
2018-12-06T12:44:13.015Z,9.6
2018-12-06T12:45:12.516Z,9.64
2018-12-06T12:46:12.781Z,9.64
2018-12-06T12:47:12.561Z,9.61
2018-12-06T12:48:12.667Z,9.63
2018-12-06T12:49:12.534Z,9.66
2018-12-06T12:50:13.333Z,9.61
2018-12-06T12:51:12.628Z,9.66
2018-12-06T12:52:12.666Z,9.68
2018-12-06T12:53:12.723Z,9.66
2018-12-06T12:54:12.834Z,9.67
2018-12-06T12:55:12.534Z,9.66
2018-12-06T12:56:12.692Z,9.64
2018-12-06T12:57:12.689Z,9.63
2018-12-06T12:58:12.882Z,9.57
2018-12-06T12:59:12.603Z,9.6
2018-12-06T13:00:12.912Z,9.61
2018-12-06T13:01:12.577Z,9.58
2018-12-06T13:02:12.560Z,9.6
2018-12-06T13:03:12.900Z,9.63
2018-12-06T13:04:12.517Z,9.61
2018-12-06T13:05:12.913Z,9.62
2018-12-06T13:06:12.520Z,9.66
2018-12-06T13:07:12.653Z,9.64
2018-12-06T13:08:12.643Z,9.57
2018-12-06T13:09:12.663Z,9.62
2018-12-06T13:10:12.768Z,9.58
2018-12-06T13:11:12.593Z,9.56
2018-12-06T13:12:12.622Z,9.59
2018-12-06T13:13:12.610Z,9.56
2018-12-06T13:14:12.503Z,9.54
2018-12-06T13:15:12.549Z,9.57
2018-12-06T13:16:12.475Z,9.55
2018-12-06T13:17:12.824Z,9.53
2018-12-06T13:18:12.528Z,9.55
2018-12-06T13:19:12.729Z,9.55
2018-12-06T13:20:12.748Z,9.57
2018-12-06T13:21:12.606Z,9.58